Time;durP1;ratioP1;P1;durP2;ratioP2;P2;SDS_P1;SDS_P2;PMS_P1;PMS_P2;Temp;Humidity;BMP_temperature;BMP_pressure;BME280_temperature;BME280_humidity;BME280_pressure;Samples;Min_cycle;Max_cycle;Signal;HPM_P1;HPM_P2
2022/08/28 00:00:31;;;;;;;75.90;49.83;;;;;;;23.32;37.75;99831.28;4996410;28;20128;-70
2022/08/28 00:02:56;;;;;;;77.57;50.97;;;;;;;23.29;37.33;99830.81;5014177;28;20123;-70
2022/08/28 00:05:23;;;;;;;75.00;49.05;;;;;;;23.30;37.88;99832.50;4996289;28;20079;-72
2022/08/28 00:07:48;;;;;;;75.88;49.53;;;;;;;23.27;37.87;99830.97;5016526;28;20041;-70
2022/08/28 00:10:15;;;;;;;81.22;52.00;;;;;;;23.26;37.72;99828.44;5017666;28;20140;-71
2022/08/28 00:12:40;;;;;;;82.93;51.40;;;;;;;23.26;37.62;99832.00;5017568;28;20402;-70
2022/08/28 00:15:12;;;;;;;78.93;49.55;;;;;;;23.26;37.43;99826.56;4999702;28;20139;-69
2022/08/28 00:17:37;;;;;;;81.07;52.63;;;;;;;23.25;37.42;99826.78;5017704;28;20047;-69
2022/08/28 00:20:04;;;;;;;84.15;52.88;;;;;;;23.24;37.47;99817.78;4999698;28;20462;-69
2022/08/28 00:22:29;;;;;;;86.20;53.35;;;;;;;23.25;37.66;99819.44;5017514;28;20110;-68
2022/08/28 00:24:53;;;;;;;85.20;53.15;;;;;;;23.26;37.87;99810.25;5017482;28;20049;-69
2022/08/28 00:30:23;;;;;;;83.68;51.88;;;;;;;23.30;38.12;99816.16;4917918;29;20070;-70
2022/08/28 00:32:48;;;;;;;92.93;57.97;;;;;;;23.29;38.01;99807.16;4917765;28;20047;-71
2022/08/28 00:35:13;;;;;;;92.53;60.33;;;;;;;23.28;37.85;99805.47;4918520;28;20062;-69
2022/08/28 00:37:38;;;;;;;89.93;58.15;;;;;;;23.29;38.29;99809.88;4919534;29;20047;-71
2022/08/28 00:40:04;;;;;;;97.47;62.67;;;;;;;23.27;37.92;99806.50;4918958;29;20163;-70
2022/08/28 00:42:32;;;;;;;96.03;60.22;;;;;;;23.30;37.97;99808.00;4918342;29;20117;-68
2022/08/28 00:44:57;;;;;;;97.68;62.10;;;;;;;23.28;37.98;99808.19;4919001;29;20105;-70
2022/08/28 00:47:23;;;;;;;98.60;61.20;;;;;;;23.27;38.12;99805.66;4921206;29;20059;-69
2022/08/28 00:49:51;;;;;;;108.78;60.70;;;;;;;23.23;38.14;99813.38;4923459;28;20457;-71
2022/08/28 00:52:17;;;;;;;103.95;66.30;;;;;;;23.22;38.02;99808.94;4921252;28;20102;-68
2022/08/28 00:54:59;;;;;;;101.43;64.82;;;;;;;23.26;37.81;99804.81;4936337;28;20059;-71
2022/08/28 00:57:38;;;;;;;101.75;64.40;;;;;;;23.25;38.03;99814.00;4936413;28;20047;-71
2022/08/28 01:00:09;;;;;;;104.25;64.78;;;;;;;23.21;38.09;99800.97;4941611;28;20061;-71
2022/08/28 01:02:34;;;;;;;99.57;65.93;;;;;;;23.16;38.38;99796.09;5036969;28;20036;-68
2022/08/28 01:04:59;;;;;;;107.07;64.35;;;;;;;23.14;38.47;99800.84;5036876;28;20048;-71
2022/08/28 01:07:24;;;;;;;103.57;66.40;;;;;;;23.13;38.26;99800.03;5018980;28;20507;-70
2022/08/28 01:09:52;;;;;;;109.18;67.05;;;;;;;23.14;38.31;99800.84;5037223;28;20047;-71
2022/08/28 01:12:22;;;;;;;104.65;67.70;;;;;;;23.14;38.73;99804.44;5019506;28;20036;-70
2022/08/28 01:14:49;;;;;;;109.97;69.50;;;;;;;23.17;38.39;99792.34;5037270;28;20462;-70
2022/08/28 01:17:16;;;;;;;104.60;67.80;;;;;;;23.18;38.61;99794.03;5018313;28;20044;-69
2022/08/28 01:19:56;;;;;;;109.95;71.53;;;;;;;23.21;38.17;99790.94;5017720;28;20051;-70
2022/08/28 01:22:37;;;;;;;105.18;70.38;;;;;;;23.21;38.36;99790.94;5036529;28;20037;-69
2022/08/28 01:25:08;;;;;;;110.97;69.47;;;;;;;23.15;38.58;99788.94;5036250;28;20040;-67
2022/08/28 01:27:33;;;;;;;119.80;70.43;;;;;;;23.11;38.65;99793.09;5018262;28;20040;-73
2022/08/28 01:29:58;;;;;;;115.13;73.80;;;;;;;23.05;38.50;99783.78;5001887;28;20047;-69
2022/08/28 01:32:36;;;;;;;112.55;72.18;;;;;;;23.08;38.64;99788.03;5018038;28;20033;-71
2022/08/28 01:35:03;;;;;;;116.03;74.13;;;;;;;23.03;38.92;99785.00;5018828;28;20044;-73
2022/08/28 01:37:28;;;;;;;113.93;75.40;;;;;;;23.02;38.94;99786.06;5036454;28;20044;-70
2022/08/28 01:39:53;;;;;;;118.63;75.40;;;;;;;22.98;38.97;99779.28;5018031;28;20036;-71
2022/08/28 01:42:18;;;;;;;115.63;75.78;;;;;;;22.94;39.19;99780.69;5036229;28;20041;-69
2022/08/28 01:44:42;;;;;;;120.03;79.75;;;;;;;22.91;39.22;99773.75;5036388;28;20113;-69
2022/08/28 01:47:07;;;;;;;126.03;79.88;;;;;;;22.89;39.38;99774.97;5035888;28;20388;-74
2022/08/28 01:49:32;;;;;;;114.18;77.55;;;;;;;22.90;39.42;99771.22;5035782;28;20123;-74
2022/08/28 01:51:57;;;;;;;124.82;82.35;;;;;;;22.90;39.56;99777.50;5036232;28;20040;-78
2022/08/28 01:54:24;;;;;;;126.90;80.88;;;;;;;22.89;39.36;99774.97;5017503;28;20053;-75
2022/08/28 01:56:48;;;;;;;122.88;80.32;;;;;;;22.89;39.45;99769.53;5020175;28;20041;-78
2022/08/28 01:59:14;;;;;;;121.63;83.15;;;;;;;22.83;39.47;99776.53;5025421;28;20506;-77
2022/08/28 02:01:41;;;;;;;127.43;82.82;;;;;;;22.80;40.01;99766.88;5017026;28;20395;-78
2022/08/28 02:04:06;;;;;;;124.32;80.78;;;;;;;22.79;39.91;99767.94;5016229;28;20053;-75
2022/08/28 02:06:32;;;;;;;121.13;79.15;;;;;;;22.80;39.69;99768.75;5016381;28;20053;-75
2022/08/28 02:08:58;;;;;;;127.70;79.80;;;;;;;22.78;39.66;99768.97;5020640;28;20048;-75
2022/08/28 02:11:24;;;;;;;123.82;77.90;;;;;;;22.77;39.65;99770.00;5035456;28;20044;-78
2022/08/28 02:13:51;;;;;;;121.78;79.70;;;;;;;22.77;39.50;99778.16;5017553;28;20104;-77
2022/08/28 02:16:16;;;;;;;122.95;77.28;;;;;;;22.75;39.73;99777.47;5017515;28;20452;-76
2022/08/28 02:18:42;;;;;;;127.43;79.72;;;;;;;22.76;40.01;99779.16;5035679;28;20044;-74
2022/08/28 02:21:08;;;;;;;122.65;77.10;;;;;;;22.72;39.95;99775.09;5035768;28;20033;-74
2022/08/28 02:23:32;;;;;;;115.75;75.78;;;;;;;22.68;40.29;99765.63;5035671;28;20045;-74
2022/08/28 02:25:57;;;;;;;136.43;80.18;;;;;;;22.67;39.97;99765.81;5035003;28;20047;-75
2022/08/28 02:28:22;;;;;;;112.00;74.40;;;;;;;22.66;40.01;99769.56;5035092;28;20056;-74
2022/08/28 02:30:47;;;;;;;111.82;74.03;;;;;;;22.65;40.21;99767.88;5000323;28;20032;-69
2022/08/28 02:33:12;;;;;;;113.05;73.53;;;;;;;22.63;40.40;99769.91;5017099;28;20059;-70
2022/08/28 02:35:39;;;;;;;113.70;73.47;;;;;;;22.63;40.26;99767.19;5034843;28;20040;-68
2022/08/28 02:38:03;;;;;;;112.43;73.38;;;;;;;22.63;40.33;99759.91;5034727;28;20048;-70
2022/08/28 02:40:28;;;;;;;114.43;74.10;;;;;;;22.66;40.26;99758.69;5035369;28;20446;-70
2022/08/28 02:42:53;;;;;;;104.35;68.82;;;;;;;22.64;40.55;99758.88;5034934;28;20036;-72
2022/08/28 02:45:19;;;;;;;110.43;72.30;;;;;;;22.65;40.43;99760.56;5034716;28;20063;-71
2022/08/28 02:47:45;;;;;;;109.63;67.72;;;;;;;22.65;40.68;99768.72;5034923;28;20094;-70
2022/08/28 02:50:14;;;;;;;99.28;66.70;;;;;;;22.68;40.60;99770.22;5034742;28;20039;-69
2022/08/28 02:52:40;;;;;;;112.22;70.18;;;;;;;22.66;40.90;99764.13;5016643;28;20053;-72
2022/08/28 02:55:06;;;;;;;109.63;70.18;;;;;;;22.66;40.93;99764.97;5034448;28;20040;-71
2022/08/28 02:57:31;;;;;;;104.57;66.68;;;;;;;22.61;40.93;99761.09;5016517;28;20047;-70
2022/08/28 02:59:56;;;;;;;107.43;68.75;;;;;;;22.56;41.03;99758.94;5034935;28;20406;-72
2022/08/28 03:02:20;;;;;;;103.88;67.68;;;;;;;22.53;41.44;99758.47;5035406;28;20325;-71
2022/08/28 03:04:45;;;;;;;107.53;69.38;;;;;;;22.49;41.48;99760.69;5034580;28;20056;-72
2022/08/28 03:07:12;;;;;;;106.80;65.90;;;;;;;22.47;41.64;99760.03;5034429;28;20119;-70
2022/08/28 03:09:37;;;;;;;99.53;65.25;;;;;;;22.46;41.70;99752.91;5016784;28;20040;-72
2022/08/28 03:12:02;;;;;;;104.78;65.95;;;;;;;22.47;41.88;99760.03;5034425;28;20041;-70
2022/08/28 03:14:27;;;;;;;103.82;64.10;;;;;;;22.49;41.81;99757.13;5034659;28;20055;-72
2022/08/28 03:16:52;;;;;;;101.93;66.93;;;;;;;22.50;41.59;99753.38;5035153;28;20106;-71
2022/08/28 03:19:17;;;;;;;98.07;66.00;;;;;;;22.49;41.82;99760.69;5034608;28;20445;-72
2022/08/28 03:21:42;;;;;;;103.32;64.85;;;;;;;22.49;41.86;99754.41;5016593;28;20055;-73
2022/08/28 03:24:07;;;;;;;102.15;62.78;;;;;;;22.48;42.03;99752.72;5034510;28;20487;-72
2022/08/28 03:26:32;;;;;;;100.07;63.55;;;;;;;22.47;42.19;99751.88;5016198;28;20043;-72
2022/08/28 03:28:58;;;;;;;98.63;65.53;;;;;;;22.49;41.89;99749.81;5016264;28;20119;-72
2022/08/28 03:31:27;;;;;;;103.38;62.83;;;;;;;22.50;41.89;99756.94;5034328;28;20040;-71
2022/08/28 03:33:53;;;;;;;90.30;63.47;;;;;;;22.49;42.30;99751.69;5016656;28;20044;-72
2022/08/28 03:36:21;;;;;;;98.30;64.18;;;;;;;22.52;42.14;99746.75;5034493;28;20090;-71
2022/08/28 03:38:47;;;;;;;95.80;62.72;;;;;;;22.51;42.08;99747.78;5016992;28;20494;-69
2022/08/28 03:41:14;;;;;;;96.32;64.90;;;;;;;22.54;42.30;99747.41;5006310;28;20103;-70
2022/08/28 03:43:39;;;;;;;96.90;61.53;;;;;;;22.55;42.13;99749.13;5023567;28;20047;-71
2022/08/28 03:46:05;;;;;;;90.80;60.03;;;;;;;22.56;42.16;99742.66;5026748;28;20087;-72
2022/08/28 03:48:33;;;;;;;95.90;60.70;;;;;;;22.59;42.11;99752.28;5020564;28;20127;-69
2022/08/28 03:50:59;;;;;;;100.80;63.50;;;;;;;22.60;41.96;99749.38;5023716;28;20052;-71
2022/08/28 03:53:26;;;;;;;91.05;60.03;;;;;;;22.65;42.07;99751.56;5023857;28;20125;-71
2022/08/28 03:55:52;;;;;;;89.63;59.47;;;;;;;22.66;42.04;99747.81;5023653;28;20468;-71
2022/08/28 03:58:17;;;;;;;89.60;58.83;;;;;;;22.68;42.13;99746.63;5018387;28;20111;-71
2022/08/28 04:00:43;;;;;;;94.35;59.28;;;;;;;22.72;42.22;99742.47;5000804;28;20487;-72
2022/08/28 04:03:11;;;;;;;88.13;59.53;;;;;;;22.77;41.80;99739.25;5018397;28;20495;-71
2022/08/28 04:05:36;;;;;;;93.15;59.63;;;;;;;22.73;42.22;99738.72;5000652;28;20087;-71
2022/08/28 04:08:01;;;;;;;90.07;60.55;;;;;;;22.71;42.24;99748.09;5018144;28;20564;-71
2022/08/28 04:10:26;;;;;;;89.68;58.03;;;;;;;22.69;42.31;99742.84;4967621;28;20037;-71
2022/08/28 04:12:52;;;;;;;97.20;61.58;;;;;;;22.68;42.59;99757.47;5018233;28;20041;-71
2022/08/28 04:15:17;;;;;;;88.93;56.88;;;;;;;22.69;42.69;99769.16;5018330;28;20045;-74
2022/08/28 04:17:42;;;;;;;88.55;55.90;;;;;;;22.69;42.45;99763.72;5001960;28;20052;-73
2022/08/28 04:20:08;;;;;;;83.13;55.45;;;;;;;22.74;41.87;99753.16;5007845;28;20070;-72
2022/08/28 04:22:33;;;;;;;87.28;57.05;;;;;;;22.67;42.56;99755.78;5018611;28;20045;-72
2022/08/28 04:24:58;;;;;;;82.75;55.25;;;;;;;22.73;42.30;99760.47;5018373;28;20052;-71
2022/08/28 04:27:23;;;;;;;89.97;56.88;;;;;;;22.62;42.51;99752.78;5017929;28;20041;-71
2022/08/28 04:29:48;;;;;;;84.05;54.65;;;;;;;22.61;42.47;99751.06;5017943;28;20040;-71
2022/08/28 04:32:13;;;;;;;91.22;56.28;;;;;;;22.61;42.52;99745.63;5018234;28;20048;-71
2022/08/28 04:34:38;;;;;;;83.43;54.90;;;;;;;22.63;42.54;99750.91;4983635;28;20411;-70
2022/08/28 04:37:04;;;;;;;86.40;54.15;;;;;;;22.58;42.55;99740.56;5018264;28;20403;-72
2022/08/28 04:39:28;;;;;;;85.80;54.17;;;;;;;22.53;42.57;99745.72;5018262;28;20055;-72
2022/08/28 04:41:54;;;;;;;82.32;53.00;;;;;;;22.54;42.99;99755.56;5017632;28;20041;-71
2022/08/28 04:44:19;;;;;;;82.13;54.33;;;;;;;22.58;42.80;99746.00;5018067;28;20047;-75
2022/08/28 04:46:43;;;;;;;79.05;52.03;;;;;;;22.58;43.14;99756.03;5019112;28;20040;-74
2022/08/28 04:49:09;;;;;;;79.43;51.17;;;;;;;22.61;43.15;99751.06;5001307;28;20037;-76
2022/08/28 04:51:33;;;;;;;75.50;51.10;;;;;;;22.70;42.60;99749.13;5001382;28;20075;-74
2022/08/28 04:54:00;;;;;;;86.00;52.97;;;;;;;22.74;42.66;99748.56;5033489;28;20056;-75
2022/08/28 04:56:25;;;;;;;87.07;54.45;;;;;;;22.70;42.94;99755.41;5051095;28;20044;-74
2022/08/28 04:58:50;;;;;;;82.50;52.45;;;;;;;22.76;42.84;99749.28;5048390;28;20457;-75
2022/08/28 05:01:23;;;;;;;86.93;55.63;;;;;;;22.88;42.88;99756.97;5039734;28;20052;-75
2022/08/28 05:03:56;;;;;;;90.88;55.22;;;;;;;22.90;42.53;99753.03;5020866;28;20113;-75
2022/08/28 05:06:21;;;;;;;81.70;53.28;;;;;;;22.95;42.55;99742.44;5038697;28;20044;-75
2022/08/28 05:08:46;;;;;;;82.35;51.70;;;;;;;22.99;42.42;99748.34;5020679;28;20414;-75
2022/08/28 05:11:14;;;;;;;89.40;53.80;;;;;;;23.04;42.48;99749.47;5038211;28;20456;-74
2022/08/28 05:13:40;;;;;;;79.13;52.97;;;;;;;23.09;42.59;99748.91;5037177;28;20403;-71
2022/08/28 05:16:05;;;;;;;78.50;53.25;;;;;;;23.17;42.22;99748.81;5036894;28;20388;-71
2022/08/28 05:18:30;;;;;;;85.97;55.88;;;;;;;23.11;42.05;99736.84;5036966;28;20128;-70
2022/08/28 05:20:55;;;;;;;84.80;53.00;;;;;;;23.06;42.11;99738.41;5036937;28;20190;-71
2022/08/28 05:23:19;;;;;;;86.65;54.25;;;;;;;23.00;42.48;99739.16;5038939;28;20098;-72
2022/08/28 05:25:46;;;;;;;80.68;53.20;;;;;;;22.97;42.66;99736.81;5039079;28;20153;-71
2022/08/28 05:28:12;;;;;;;83.25;51.95;;;;;;;23.06;42.44;99727.53;5038905;28;20052;-72
2022/08/28 05:30:39;;;;;;;88.15;53.30;;;;;;;23.23;42.55;99729.03;5021102;28;20046;-72
2022/08/28 05:33:04;;;;;;;77.15;51.13;;;;;;;23.42;42.16;99723.00;5038302;28;20129;-73
2022/08/28 05:35:33;;;;;;;78.57;53.03;;;;;;;23.64;41.65;99717.63;5036812;28;20150;-72
2022/08/28 05:37:57;;;;;;;80.25;51.67;;;;;;;23.75;41.34;99717.13;5018539;28;20499;-72
2022/08/28 05:40:22;;;;;;;81.32;51.45;;;;;;;23.86;40.99;99717.47;5018580;28;20862;-68
2022/08/28 05:42:48;;;;;;;75.75;52.83;;;;;;;23.91;41.29;99716.91;5018427;28;20047;-70
2022/08/28 05:45:13;;;;;;;75.00;50.97;;;;;;;23.98;41.22;99711.50;5036083;28;20101;-68
2022/08/28 05:47:38;;;;;;;79.05;51.40;;;;;;;24.04;40.95;99708.84;5036073;28;20070;-69
2022/08/28 05:50:04;;;;;;;78.15;51.42;;;;;;;24.24;40.65;99709.94;5001479;28;20037;-69
2022/08/28 05:52:29;;;;;;;81.40;50.97;;;;;;;24.66;40.25;99699.97;5035834;28;20052;-70
2022/08/28 05:54:54;;;;;;;80.30;49.90;;;;;;;25.26;39.33;99709.41;5036096;28;20047;-69
2022/08/28 05:57:19;;;;;;;79.72;50.72;;;;;;;25.80;38.32;99703.97;5035958;28;20044;-71
2022/08/28 05:59:44;;;;;;;77.82;51.60;;;;;;;26.11;37.68;99708.00;5037173;28;20101;-74
2022/08/28 06:02:08;;;;;;;85.15;53.78;;;;;;;26.22;37.48;99697.28;5037504;28;20499;-73
2022/08/28 06:04:35;;;;;;;78.50;51.70;;;;;;;26.36;37.19;99699.03;5036455;28;20163;-72
2022/08/28 06:06:59;;;;;;;81.03;52.40;;;;;;;26.90;36.20;99700.66;5018074;28;20173;-71
2022/08/28 06:09:26;;;;;;;84.20;53.05;;;;;;;27.54;35.48;99688.06;5018066;28;20062;-71
2022/08/28 06:11:59;;;;;;;74.75;52.42;;;;;;;28.50;34.12;99692.28;5038094;28;20040;-72
2022/08/28 06:14:24;;;;;;;84.90;51.70;;;;;;;29.55;32.43;99692.25;5036477;28;20159;-72
2022/08/28 06:16:52;;;;;;;90.60;55.15;;;;;;;30.59;30.84;99696.41;5035433;28;20131;-72
2022/08/28 06:19:18;;;;;;;74.97;53.40;;;;;;;31.38;29.56;99701.28;5017979;28;20499;-72
2022/08/28 06:21:45;;;;;;;78.35;53.60;;;;;;;32.14;28.49;99701.97;5035315;28;20036;-71
2022/08/28 06:24:12;;;;;;;83.28;55.88;;;;;;;32.80;27.54;99670.81;5017843;28;20060;-72
2022/08/28 06:26:37;;;;;;;79.35;52.25;;;;;;;33.80;26.22;99693.72;5035829;28;20048;-70
2022/08/28 06:29:06;;;;;;;83.85;58.92;;;;;;;34.73;24.98;99688.75;5018259;28;20040;-72
2022/08/28 06:31:31;;;;;;;82.15;55.03;;;;;;;35.54;24.31;99697.59;5020433;28;20140;-73
2022/08/28 06:33:57;;;;;;;86.95;56.22;;;;;;;36.16;23.42;99697.47;5046868;28;20847;-71
2022/08/28 06:36:26;;;;;;;82.97;56.47;;;;;;;36.71;22.34;99695.84;5018330;28;20214;-72
2022/08/28 06:38:51;;;;;;;77.95;54.85;;;;;;;37.09;22.30;99694.41;5035656;28;20205;-70
2022/08/28 06:41:18;;;;;;;72.30;55.40;;;;;;;37.58;21.35;99696.47;5035686;28;20045;-72
2022/08/28 06:43:42;;;;;;;79.38;57.92;;;;;;;38.01;21.24;99773.66;5035360;28;20051;-72
2022/08/28 06:46:07;;;;;;;81.30;57.40;;;;;;;38.22;20.57;99762.41;5017179;28;20059;-73
2022/08/28 06:48:32;;;;;;;81.45;56.72;;;;;;;38.62;20.03;99790.00;5035321;28;20044;-73
2022/08/28 06:50:58;;;;;;;74.28;55.72;;;;;;;39.10;19.74;99693.41;5017074;28;20137;-72
2022/08/28 06:53:25;;;;;;;78.28;57.80;;;;;;;39.67;19.49;99701.94;5017291;28;20063;-71
2022/08/28 06:56:05;;;;;;;75.22;57.17;;;;;;;40.39;18.49;99700.63;5036390;28;20124;-72
2022/08/28 06:58:31;;;;;;;73.43;57.45;;;;;;;40.83;18.13;99696.53;5038110;28;20051;-72
2022/08/28 07:01:04;;;;;;;74.35;56.03;;;;;;;40.81;17.97;99696.00;5017483;28;20044;-72
2022/08/28 07:03:29;;;;;;;76.07;57.03;;;;;;;41.10;18.11;99699.34;5026661;28;20035;-73
2022/08/28 07:05:59;;;;;;;78.40;57.25;;;;;;;41.41;17.82;99690.38;5020128;28;20039;-72
2022/08/28 07:08:25;;;;;;;73.13;56.88;;;;;;;41.78;17.43;99690.13;5055669;28;20591;-72
2022/08/28 07:10:50;;;;;;;77.45;58.97;;;;;;;42.20;16.92;99693.69;5055372;28;20043;-73
2022/08/28 07:13:15;;;;;;;71.55;57.88;;;;;;;42.49;16.56;99696.88;5054975;28;20482;-71
2022/08/28 07:15:40;;;;;;;72.03;58.10;;;;;;;42.50;16.56;99692.13;5054770;28;20387;-72
2022/08/28 07:18:04;;;;;;;75.53;60.15;;;;;;;42.47;16.30;99695.53;5054431;28;20395;-72
2022/08/28 07:20:29;;;;;;;73.72;57.78;;;;;;;42.55;16.02;99684.41;5054523;28;20039;-72
2022/08/28 07:22:54;;;;;;;77.22;60.33;;;;;;;42.93;15.71;99689.59;5054947;28;20406;-73
2022/08/28 07:25:19;;;;;;;69.85;56.05;;;;;;;43.41;15.28;99690.47;5036654;28;20128;-74
2022/08/28 07:27:43;;;;;;;66.85;52.47;;;;;;;43.97;14.03;99697.22;5054541;28;20048;-72
2022/08/28 07:30:09;;;;;;;70.72;55.35;;;;;;;43.86;14.00;99687.44;5054784;28;20457;-72
2022/08/28 07:32:33;;;;;;;63.17;52.58;;;;;;;42.98;15.18;99690.28;5054519;28;20067;-72
2022/08/28 07:34:58;;;;;;;73.55;55.92;;;;;;;41.01;16.35;99692.81;5054115;28;20044;-71
2022/08/28 07:37:23;;;;;;;79.90;60.78;;;;;;;38.91;18.18;99689.69;5054265;28;20055;-72
2022/08/28 07:39:48;;;;;;;76.75;56.85;;;;;;;37.15;19.99;99689.66;5054939;28;20036;-73
2022/08/28 07:44:47;;;;;;;73.35;55.58;;;;;;;36.55;21.18;99683.09;5036804;28;20790;-71
2022/08/28 07:44:58;;;;;;;73.20;55.83;;;;;;;37.01;20.85;99684.72;5054580;28;20433;-72
2022/08/28 07:47:27;;;;;;;78.22;59.65;;;;;;;37.27;20.52;99674.34;5054777;28;20126;-72
2022/08/28 07:49:52;;;;;;;80.47;60.05;;;;;;;36.57;21.56;99675.31;5054569;28;20048;-73
2022/08/28 07:52:17;;;;;;;79.22;57.33;;;;;;;35.60;22.10;99675.13;5036053;28;20097;-71
2022/08/28 07:54:42;;;;;;;81.18;55.55;;;;;;;34.43;23.28;99673.56;5039182;28;20048;-72
2022/08/28 07:57:10;;;;;;;82.18;55.40;;;;;;;33.62;24.12;99682.97;5016369;28;20076;-71
2022/08/28 07:59:39;;;;;;;81.13;55.63;;;;;;;33.15;25.20;99678.78;5016685;28;20066;-72
2022/08/28 08:02:05;;;;;;;71.47;51.10;;;;;;;32.97;25.21;99672.69;5017100;28;20036;-71
2022/08/28 08:04:30;;;;;;;70.55;48.88;;;;;;;32.80;24.43;99667.22;5033941;28;20155;-71
2022/08/28 08:06:55;;;;;;;63.95;49.80;;;;;;;32.17;25.36;99673.06;5016023;28;20462;-72
2022/08/28 08:09:20;;;;;;;76.78;52.25;;;;;;;31.58;26.46;99680.75;5015775;28;20522;-73
2022/08/28 08:11:47;;;;;;;71.18;51.47;;;;;;;31.11;27.04;99671.78;5033895;28;20044;-73
2022/08/28 08:14:12;;;;;;;74.53;49.20;;;;;;;30.76;27.40;99669.03;4999561;28;20094;-71
2022/08/28 08:16:40;;;;;;;73.07;49.85;;;;;;;30.47;28.06;99670.78;5016070;28;20040;-71
2022/08/28 08:19:08;;;;;;;72.47;51.85;;;;;;;30.17;28.73;99673.59;5033873;28;20048;-71
2022/08/28 08:21:33;;;;;;;75.07;47.55;;;;;;;29.80;29.23;99664.63;5034345;28;20480;-73
2022/08/28 08:23:58;;;;;;;75.18;51.97;;;;;;;29.69;29.97;99665.41;5036511;28;20059;-72
2022/08/28 08:26:26;;;;;;;78.32;50.42;;;;;;;29.54;30.45;99663.09;5038336;28;20047;-73
2022/08/28 08:28:51;;;;;;;71.57;49.78;;;;;;;29.56;30.86;99664.56;5037048;28;20048;-71
2022/08/28 08:31:31;;;;;;;76.40;51.20;;;;;;;29.81;30.99;99656.16;5037232;28;20047;-70
2022/08/28 08:34:00;;;;;;;73.70;48.25;;;;;;;30.51;29.59;99675.56;5037943;28;20552;-69
2022/08/28 08:36:25;;;;;;;77.40;53.70;;;;;;;31.05;28.60;99668.03;5019501;28;20603;-70
2022/08/28 08:38:52;;;;;;;78.43;53.83;;;;;;;31.75;27.44;99665.13;5038126;28;20511;-71
2022/08/28 08:41:29;;;;;;;77.53;51.60;;;;;;;32.62;26.75;99665.53;5042499;28;20033;-72
2022/08/28 08:44:26;;;;;;;74.90;49.72;;;;;;;34.10;25.55;99662.75;5037903;28;20514;-72
2022/08/28 08:47:01;;;;;;;68.30;49.88;;;;;;;36.07;22.91;99674.16;5019704;28;20052;-72
2022/08/28 08:49:33;;;;;;;69.63;49.35;;;;;;;37.34;21.39;99668.50;5037690;28;20055;-72
2022/08/28 08:52:10;;;;;;;67.90;50.30;;;;;;;38.19;19.98;99669.13;5037500;28;20041;-72
2022/08/28 08:54:40;;;;;;;68.35;50.92;;;;;;;38.61;20.09;99673.25;5037527;28;20080;-72
2022/08/28 08:57:07;;;;;;;70.40;52.00;;;;;;;38.71;19.26;99667.59;5019651;28;20610;-72
2022/08/28 08:59:37;;;;;;;76.85;51.03;;;;;;;38.54;19.67;99664.41;5040706;28;20044;-73
2022/08/28 09:02:11;;;;;;;59.22;47.95;;;;;;;38.45;19.74;99667.81;5037971;28;20040;-72
2022/08/28 09:04:46;;;;;;;68.70;50.10;;;;;;;38.80;19.22;99660.25;5037998;28;20048;-75
2022/08/28 09:07:22;;;;;;;64.20;49.40;;;;;;;39.07;18.78;99656.91;5037453;28;20044;-71
2022/08/28 09:09:52;;;;;;;55.20;46.53;;;;;;;39.10;18.60;99659.94;5019561;28;20095;-69
2022/08/28 09:12:21;;;;;;;62.67;47.00;;;;;;;39.06;19.21;99661.66;5037131;28;20044;-68
2022/08/28 09:15:03;;;;;;;57.38;42.90;;;;;;;38.95;19.06;99653.66;5037233;28;20072;-68
2022/08/28 09:17:37;;;;;;;66.90;43.20;;;;;;;38.44;19.13;99655.00;5037283;28;20040;-67
2022/08/28 09:20:05;;;;;;;57.08;39.38;;;;;;;38.16;19.34;99641.88;5018950;28;20040;-68
2022/08/28 09:22:30;;;;;;;64.18;43.40;;;;;;;38.27;19.24;99645.41;5037054;28;20036;-68
2022/08/28 09:24:55;;;;;;;64.63;44.85;;;;;;;38.43;19.29;99650.56;5019010;28;20043;-67
2022/08/28 09:27:31;;;;;;;53.78;44.05;;;;;;;38.51;19.63;99651.88;5037281;28;20040;-67
2022/08/28 09:30:07;;;;;;;58.72;42.10;;;;;;;38.37;19.24;99654.53;5019310;28;20060;-68
2022/08/28 09:32:37;;;;;;;51.25;38.97;;;;;;;38.72;18.38;99646.94;5018856;28;20072;-69
2022/08/28 09:35:31;;;;;;;54.65;40.67;;;;;;;39.71;18.29;99650.81;5037753;28;20048;-68
2022/08/28 09:38:16;;;;;;;53.40;40.92;;;;;;;40.46;18.07;99655.53;5036324;28;20078;-68
2022/08/28 09:43:27;;;;;;;;;;;;;;;41.24;15.72;99655.47;5002939;28;20036;-69
2022/08/28 09:45:56;;;;;;;40.60;29.00;;;;;;;39.45;15.90;99653.13;5019521;28;20322;-70
2022/08/28 09:48:28;;;;;;;37.55;28.65;;;;;;;38.78;16.75;99648.56;5018975;28;20040;-68
2022/08/28 09:51:02;;;;;;;34.45;29.20;;;;;;;38.81;16.77;99654.41;5019124;28;20079;-70
2022/08/28 09:53:29;;;;;;;38.15;25.10;;;;;;;38.97;15.66;99641.13;5019272;28;20045;-69
2022/08/28 09:56:12;;;;;;;30.45;26.00;;;;;;;39.01;16.44;99649.75;5038194;28;20087;-69
2022/08/28 09:58:49;;;;;;;32.63;25.52;;;;;;;38.25;16.79;99642.09;5036930;28;20398;-69
2022/08/28 10:01:23;;;;;;;30.40;23.98;;;;;;;37.72;16.63;99637.16;5037856;28;20070;-70
2022/08/28 10:04:00;;;;;;;34.15;23.40;;;;;;;37.58;16.79;99633.31;5019686;28;20560;-70
2022/08/28 10:06:32;;;;;;;36.05;23.15;;;;;;;37.45;16.79;99633.94;5019420;28;20886;-71
2022/08/28 10:09:12;;;;;;;28.53;22.20;;;;;;;37.72;16.69;99630.75;5037559;28;20140;-70
2022/08/28 10:11:49;;;;;;;30.17;20.98;;;;;;;38.83;15.63;99629.00;5020638;28;20303;-68
2022/08/28 10:14:53;;;;;;;27.55;22.95;;;;;;;39.38;15.30;99633.09;5036929;28;20036;-68
2022/08/28 10:17:21;;;;;;;32.03;21.05;;;;;;;38.18;15.65;99628.50;5037873;28;20052;-67
2022/08/28 10:19:49;;;;;;;30.52;19.58;;;;;;;37.07;15.70;99624.34;5040751;28;20108;-67
2022/08/28 10:22:23;;;;;;;30.40;19.40;;;;;;;35.83;17.24;99625.84;5046891;28;20054;-67
2022/08/28 10:25:17;;;;;;;26.75;19.52;;;;;;;34.96;18.03;99616.34;5045223;28;20139;-69
2022/08/28 10:28:00;;;;;;;22.73;18.50;;;;;;;34.18;18.98;99610.53;5039413;28;20507;-66
2022/08/28 10:30:26;;;;;;;30.17;18.25;;;;;;;33.52;19.14;99604.34;5036999;28;20525;-67
2022/08/28 10:33:19;;;;;;;27.17;17.58;;;;;;;33.06;19.65;99602.97;5037032;28;20052;-66
2022/08/28 10:36:11;;;;;;;;;;;;;;;33.16;19.24;99607.78;5018051;28;20093;-67
2022/08/28 10:38:44;;;;;;;27.88;17.40;;;;;;;32.77;19.83;99599.53;4955154;28;19928;-67
2022/08/28 10:41:36;;;;;;;28.15;16.15;;;;;;;32.53;19.92;99592.53;4954851;28;20038;-67
2022/08/28 10:44:04;;;;;;;22.55;16.30;;;;;;;32.14;20.52;99599.06;4956294;28;20046;-70
2022/08/28 10:46:35;;;;;;;23.50;16.70;;;;;;;32.08;20.95;99598.97;4961023;28;20800;-69
2022/08/28 10:49:13;;;;;;;25.35;15.45;;;;;;;32.28;20.14;99600.44;4956857;28;20496;-70
2022/08/28 10:51:50;;;;;;;26.98;16.65;;;;;;;32.30;19.90;99593.56;4954878;28;20066;-69
2022/08/28 10:54:27;;;;;;;22.38;16.85;;;;;;;32.26;20.21;99597.94;4956154;28;20062;-71
2022/08/28 10:57:16;;;;;;;28.55;16.05;;;;;;;32.08;20.30;99596.22;4940404;28;20046;-69
2022/08/28 10:59:45;;;;;;;23.67;16.70;;;;;;;32.02;20.53;99602.75;4939603;28;20046;-68
2022/08/28 11:02:12;;;;;;;21.98;16.33;;;;;;;31.88;20.84;99590.38;4924950;28;20070;-68
2022/08/28 11:04:38;;;;;;;22.52;16.80;;;;;;;31.96;20.63;99587.19;4957082;28;20077;-67
2022/08/28 11:07:07;;;;;;;32.95;16.83;;;;;;;31.98;21.07;99584.19;4955648;28;20050;-69
2022/08/28 11:09:40;;;;;;;32.00;17.13;;;;;;;31.88;21.00;99579.34;4954850;28;20527;-70
2022/08/28 11:12:15;;;;;;;23.45;16.50;;;;;;;31.82;20.99;99582.28;4967832;28;20212;-70
2022/08/28 11:14:42;;;;;;;25.33;17.30;;;;;;;31.64;21.46;99569.53;4982426;28;20452;-72
2022/08/28 11:17:29;;;;;;;30.15;17.90;;;;;;;31.46;21.57;99558.72;4998299;28;20119;-71
2022/08/28 11:20:23;;;;;;;29.08;16.85;;;;;;;31.36;21.94;99570.38;5014556;28;20041;-73
2022/08/28 11:22:58;;;;;;;32.38;19.17;;;;;;;31.32;22.14;99563.69;5014505;28;20131;-69
2022/08/28 11:25:41;;;;;;;27.90;18.50;;;;;;;31.31;22.26;99562.00;5018504;28;20044;-70
2022/08/28 11:28:24;;;;;;;24.90;17.25;;;;;;;31.33;22.33;99565.34;5035242;28;20052;-69